Aviation Digital Data Service (ADDS)

Output produced by METARs form (0459 UTC 20 October 2017)
found at http://aviationweather.gov/adds/metars/
 
KMSS 192337Z 2000/2024 24012G19KT P6SM FEW140 
     FM200200 26008KT P6SM FEW250 
     FM202300 21006KT P6SM SKC